createdAt,value
2022-12-01T00:01:23.500Z,7.30
2022-12-01T00:03:51.896Z,7.20
2022-12-01T00:06:21.352Z,6.90
2022-12-01T00:09:12.949Z,7.00
2022-12-01T00:11:45.178Z,6.90
2022-12-01T00:14:14.681Z,6.90
2022-12-01T00:16:44.577Z,6.90
2022-12-01T00:19:13.017Z,7.10
2022-12-01T00:21:41.148Z,7.20
2022-12-01T00:24:11.282Z,7.30
2022-12-01T00:26:40.161Z,7.20
2022-12-01T00:29:08.293Z,7.30
2022-12-01T00:31:38.296Z,7.30
2022-12-01T00:34:11.019Z,7.20
2022-12-01T00:36:40.076Z,7.30
2022-12-01T00:39:08.287Z,7.30
2022-12-01T00:41:36.402Z,7.30
2022-12-01T00:44:04.700Z,7.30
2022-12-01T00:46:32.928Z,7.30
2022-12-01T00:49:02.666Z,7.40
2022-12-01T00:51:31.345Z,7.40
2022-12-01T00:53:59.744Z,7.30
2022-12-01T00:56:28.027Z,7.30
2022-12-01T00:58:56.287Z,7.30
2022-12-01T01:01:24.556Z,7.20
2022-12-01T01:03:52.768Z,7.20
2022-12-01T01:06:22.370Z,7.20
2022-12-01T01:08:50.805Z,7.20
2022-12-01T01:11:19.021Z,7.20
2022-12-01T01:13:47.291Z,7.10
2022-12-01T01:16:18.081Z,7.10
2022-12-01T01:18:46.316Z,7.10
2022-12-01T01:21:16.872Z,7.20
2022-12-01T01:23:46.578Z,7.10
2022-12-01T01:26:16.900Z,7.10
2022-12-01T01:28:45.577Z,7.10
2022-12-01T01:31:16.558Z,7.10
2022-12-01T01:33:44.894Z,7.10
2022-12-01T01:36:13.822Z,7.10
2022-12-01T01:38:42.180Z,7.00
2022-12-01T01:41:12.136Z,7.00
2022-12-01T01:43:46.279Z,7.00
2022-12-01T01:46:17.080Z,7.00
2022-12-01T01:48:54.451Z,6.90
2022-12-01T01:51:27.095Z,6.90
2022-12-01T01:54:00.083Z,6.90
2022-12-01T01:56:30.324Z,6.90
2022-12-01T01:58:59.598Z,6.90
2022-12-01T02:01:27.896Z,6.90
2022-12-01T02:03:57.296Z,6.90
2022-12-01T02:06:25.519Z,6.90
2022-12-01T02:08:53.772Z,6.80
2022-12-01T02:11:48.736Z,6.80
2022-12-01T02:14:44.938Z,6.70
2022-12-01T02:17:22.748Z,6.70
2022-12-01T02:20:20.866Z,6.60
2022-12-01T02:23:02.457Z,6.60
2022-12-01T02:25:44.412Z,6.60
2022-12-01T02:28:34.658Z,6.60
2022-12-01T02:31:09.145Z,6.60
2022-12-01T02:33:41.787Z,6.60
2022-12-01T02:36:17.751Z,6.80
2022-12-01T02:38:53.439Z,6.80
2022-12-01T02:41:27.949Z,6.70
2022-12-01T02:44:01.536Z,6.60
2022-12-01T02:46:35.295Z,6.70
2022-12-01T02:49:08.299Z,6.70
2022-12-01T02:51:38.683Z,6.70
2022-12-01T02:54:07.151Z,6.70
2022-12-01T02:56:35.414Z,6.70
2022-12-01T02:59:03.585Z,6.70
2022-12-01T03:01:50.629Z,6.70
2022-12-01T03:04:39.001Z,6.70
2022-12-01T03:07:16.629Z,6.70
2022-12-01T03:09:54.334Z,6.70
2022-12-01T03:12:33.128Z,6.60
2022-12-01T03:15:08.149Z,6.70
2022-12-01T03:17:44.701Z,6.80
2022-12-01T03:20:19.920Z,6.80
2022-12-01T03:22:52.171Z,6.80
2022-12-01T03:25:22.982Z,6.80
2022-12-01T03:28:20.236Z,6.80
2022-12-01T03:30:46.559Z,6.80
2022-12-01T03:33:20.074Z,6.80
2022-12-01T03:35:54.689Z,6.70
2022-12-01T03:38:26.118Z,6.70
2022-12-01T03:40:59.504Z,6.60
2022-12-01T03:43:34.073Z,6.60
2022-12-01T03:46:08.684Z,6.70
2022-12-01T03:48:39.330Z,6.70
2022-12-01T03:51:14.421Z,6.70
2022-12-01T03:53:52.790Z,6.70
2022-12-01T03:56:23.814Z,6.70
2022-12-01T03:58:55.845Z,6.60
2022-12-01T04:01:24.205Z,6.60
2022-12-01T04:03:53.792Z,6.60
2022-12-01T04:06:21.912Z,6.40
2022-12-01T04:08:50.108Z,6.30
2022-12-01T04:11:35.527Z,6.30
2022-12-01T04:14:03.723Z,6.30
2022-12-01T04:16:31.973Z,6.30
2022-12-01T04:19:01.629Z,6.30
2022-12-01T04:21:29.917Z,6.30
2022-12-01T04:24:03.664Z,6.20
2022-12-01T04:26:33.651Z,6.20
2022-12-01T04:29:02.018Z,6.30
2022-12-01T04:31:30.816Z,6.10
2022-12-01T04:33:59.795Z,6.20
2022-12-01T04:36:32.254Z,6.20
2022-12-01T04:39:00.636Z,6.30
2022-12-01T04:41:29.078Z,6.30
2022-12-01T04:43:57.758Z,6.30
2022-12-01T04:46:26.360Z,6.20
2022-12-01T04:48:54.575Z,6.30
2022-12-01T04:51:22.729Z,6.30
2022-12-01T04:53:52.448Z,6.40
2022-12-01T04:56:20.710Z,6.30
2022-12-01T04:58:48.909Z,6.30
2022-12-01T05:01:19.353Z,6.30
2022-12-01T05:03:50.396Z,6.20
2022-12-01T05:06:20.137Z,6.10
2022-12-01T05:08:48.620Z,6.10
2022-12-01T05:11:19.372Z,6.20
2022-12-01T05:13:49.531Z,6.10
2022-12-01T05:16:19.921Z,6.00
2022-12-01T05:18:52.001Z,6.10
2022-12-01T05:21:19.145Z,6.00
2022-12-01T05:23:47.422Z,5.90
2022-12-01T05:26:16.990Z,6.00
2022-12-01T05:28:45.161Z,6.00
2022-12-01T05:31:13.633Z,5.90
2022-12-01T05:33:41.882Z,6.00
2022-12-01T05:36:10.686Z,6.00
2022-12-01T05:38:40.728Z,5.90
2022-12-01T05:41:08.848Z,5.80
2022-12-01T05:43:38.538Z,5.80
2022-12-01T05:46:06.874Z,5.80
2022-12-01T05:48:35.055Z,5.80
2022-12-01T05:51:10.108Z,5.80
2022-12-01T05:53:38.526Z,5.60
2022-12-01T05:56:08.201Z,5.60
2022-12-01T05:58:37.742Z,5.60
2022-12-01T06:01:06.264Z,5.50
2022-12-01T06:03:34.605Z,5.50
2022-12-01T06:06:02.909Z,5.50
2022-12-01T06:08:31.252Z,5.50
2022-12-01T06:10:59.637Z,5.60
2022-12-01T06:13:27.771Z,5.60
2022-12-01T06:16:02.637Z,5.60
2022-12-01T06:18:32.980Z,5.50
2022-12-01T06:21:01.224Z,5.50
2022-12-01T06:23:30.769Z,5.50
2022-12-01T06:25:59.113Z,5.50
2022-12-01T06:28:27.279Z,5.50
2022-12-01T06:30:59.473Z,5.60
2022-12-01T06:33:32.879Z,5.60
2022-12-01T06:36:01.888Z,5.50
2022-12-01T06:38:32.603Z,5.50
2022-12-01T06:41:00.743Z,5.50
2022-12-01T06:43:29.444Z,5.70
2022-12-01T06:46:01.585Z,5.60
2022-12-01T06:48:32.380Z,5.50
2022-12-01T06:51:00.778Z,5.50
2022-12-01T06:53:29.486Z,5.50
2022-12-01T06:56:01.241Z,5.60
2022-12-01T06:58:29.833Z,5.70
2022-12-01T07:00:58.913Z,5.70
2022-12-01T07:03:27.164Z,5.70
2022-12-01T07:06:01.411Z,5.70
2022-12-01T07:08:30.506Z,5.70
2022-12-01T07:10:59.960Z,5.70
2022-12-01T07:13:33.145Z,5.60
2022-12-01T07:16:02.988Z,5.70
2022-12-01T07:18:31.433Z,5.80
2022-12-01T07:21:02.602Z,5.60
2022-12-01T07:23:31.275Z,5.40
2022-12-01T07:26:00.661Z,5.40
2022-12-01T07:28:29.032Z,5.30
2022-12-01T07:31:03.394Z,5.30
2022-12-01T07:33:32.208Z,5.40
2022-12-01T07:36:02.081Z,5.40
2022-12-01T07:38:30.634Z,5.40
2022-12-01T07:41:03.711Z,5.50
2022-12-01T07:43:32.799Z,5.60
2022-12-01T07:46:06.636Z,5.60
2022-12-01T07:48:34.931Z,5.50
2022-12-01T07:51:04.768Z,5.60
2022-12-01T07:53:33.419Z,5.60
2022-12-01T07:56:05.697Z,5.70
2022-12-01T07:58:36.867Z,5.60
2022-12-01T08:01:09.855Z,5.60
2022-12-01T08:03:38.440Z,5.60
2022-12-01T08:06:09.075Z,5.70
2022-12-01T08:08:40.128Z,5.70
2022-12-01T08:11:11.385Z,5.70
2022-12-01T08:13:40.182Z,5.80
2022-12-01T08:16:10.025Z,5.80
2022-12-01T08:18:39.104Z,5.80
2022-12-01T08:21:10.541Z,5.80
2022-12-01T08:23:38.789Z,5.80
2022-12-01T08:26:08.793Z,5.80
2022-12-01T08:28:38.783Z,5.80
2022-12-01T08:31:11.991Z,5.90
2022-12-01T08:33:42.254Z,5.90
2022-12-01T08:36:11.948Z,5.80
2022-12-01T08:38:40.157Z,5.80
2022-12-01T08:41:09.928Z,5.60
2022-12-01T08:46:29.664Z,5.50
2022-12-01T08:48:58.197Z,5.50
2022-12-01T08:51:28.250Z,5.60
2022-12-01T08:53:58.137Z,5.60
2022-12-01T08:56:28.471Z,5.50
2022-12-01T08:58:59.788Z,5.40
2022-12-01T09:01:32.659Z,5.40
2022-12-01T09:04:09.127Z,5.40
2022-12-01T09:06:42.595Z,5.50
2022-12-01T09:09:13.306Z,5.50
2022-12-01T09:11:43.729Z,5.60
2022-12-01T09:14:12.410Z,5.60
2022-12-01T09:16:40.748Z,5.60
2022-12-01T09:19:09.178Z,5.60
2022-12-01T09:21:38.462Z,5.70
2022-12-01T09:24:09.755Z,5.70
2022-12-01T09:26:37.878Z,5.70
2022-12-01T09:29:08.078Z,5.70
2022-12-01T09:31:36.714Z,5.80
2022-12-01T09:34:07.082Z,5.80
2022-12-01T09:36:37.376Z,5.80
2022-12-01T09:39:08.067Z,5.90
2022-12-01T09:41:48.432Z,5.80
2022-12-01T09:44:26.793Z,5.90
2022-12-01T09:47:00.129Z,5.90
2022-12-01T09:49:40.747Z,5.80
2022-12-01T09:52:12.604Z,5.90
2022-12-01T09:54:42.392Z,5.90
2022-12-01T09:57:18.547Z,5.90
2022-12-01T09:59:48.137Z,5.60
2022-12-01T10:02:27.849Z,5.70
2022-12-01T10:04:59.860Z,5.70
2022-12-01T10:07:33.064Z,5.70
2022-12-01T10:10:06.073Z,5.70
2022-12-01T10:12:35.987Z,5.80
2022-12-01T10:15:31.040Z,5.70
2022-12-01T10:18:10.896Z,5.60
2022-12-01T10:20:46.781Z,5.70
2022-12-01T10:23:42.010Z,5.70
2022-12-01T10:26:17.179Z,5.70
2022-12-01T10:28:55.063Z,5.80
2022-12-01T10:31:36.667Z,5.80
2022-12-01T10:34:09.127Z,5.80
2022-12-01T10:36:37.324Z,5.80
2022-12-01T10:39:07.903Z,5.90
2022-12-01T10:41:40.453Z,5.90
2022-12-01T10:44:09.812Z,5.90
2022-12-01T10:46:44.324Z,6.00
2022-12-01T10:49:14.385Z,6.10
2022-12-01T10:51:56.902Z,6.10
2022-12-01T10:54:33.974Z,6.00
2022-12-01T10:57:04.280Z,6.00
2022-12-01T10:59:36.900Z,5.90
2022-12-01T11:02:15.414Z,5.90
2022-12-01T11:04:47.385Z,5.90
2022-12-01T11:07:21.761Z,5.90
2022-12-01T11:10:01.204Z,5.90
2022-12-01T11:12:31.106Z,6.00
2022-12-01T11:14:59.714Z,5.90
2022-12-01T11:17:32.648Z,6.00
2022-12-01T11:20:18.016Z,6.00
2022-12-01T11:22:46.261Z,6.00
2022-12-01T11:25:21.744Z,6.00
2022-12-01T11:27:54.307Z,6.00
2022-12-01T11:30:24.784Z,5.90
2022-12-01T11:32:56.152Z,6.00
2022-12-01T11:35:27.224Z,6.00
2022-12-01T11:38:28.182Z,6.10
2022-12-01T11:40:52.172Z,6.20
2022-12-01T11:43:27.513Z,6.30
2022-12-01T11:45:58.098Z,6.30
2022-12-01T11:48:28.311Z,6.30
2022-12-01T11:51:06.712Z,6.20
2022-12-01T11:53:36.418Z,6.20
2022-12-01T11:56:20.980Z,6.30
2022-12-01T11:58:52.207Z,6.40
2022-12-01T12:01:31.529Z,6.20
2022-12-01T12:04:10.559Z,6.20
2022-12-01T12:06:45.783Z,6.20
2022-12-01T12:09:45.119Z,6.10
2022-12-01T12:12:24.644Z,6.10
2022-12-01T12:15:05.729Z,5.90
2022-12-01T12:17:50.079Z,6.00
2022-12-01T12:20:43.919Z,6.00
2022-12-01T12:23:44.589Z,6.10
2022-12-01T12:26:21.303Z,6.10
2022-12-01T12:29:13.790Z,6.10
2022-12-01T12:31:54.711Z,5.90
2022-12-01T12:34:36.168Z,6.00
2022-12-01T12:37:17.660Z,5.80
2022-12-01T12:40:06.207Z,5.90
2022-12-01T12:42:44.845Z,5.90
2022-12-01T12:45:21.652Z,6.00
2022-12-01T12:48:02.610Z,5.90
2022-12-01T12:50:37.694Z,6.00
2022-12-01T12:53:11.335Z,6.00
2022-12-01T12:55:44.258Z,6.10
2022-12-01T12:58:19.283Z,6.20
2022-12-01T13:00:52.585Z,6.20
2022-12-01T13:03:33.737Z,6.20
2022-12-01T13:06:06.934Z,6.30
2022-12-01T13:08:41.112Z,6.20
2022-12-01T13:11:16.094Z,6.30
2022-12-01T13:13:55.217Z,6.40
2022-12-01T13:16:28.262Z,6.40
2022-12-01T13:19:05.112Z,6.30
2022-12-01T13:21:38.388Z,6.20
2022-12-01T13:24:08.660Z,6.20
2022-12-01T13:26:38.970Z,6.30
2022-12-01T13:29:09.167Z,6.30
2022-12-01T13:31:49.439Z,6.30
2022-12-01T13:34:25.960Z,6.40
2022-12-01T13:36:56.530Z,6.40
2022-12-01T13:39:26.690Z,6.50
2022-12-01T13:42:03.773Z,6.40
2022-12-01T13:44:38.523Z,6.40
2022-12-01T13:47:40.102Z,6.50
2022-12-01T13:50:54.166Z,6.50
2022-12-01T13:53:32.955Z,6.40
2022-12-01T13:56:27.401Z,6.30
2022-12-01T13:58:56.341Z,6.30
2022-12-01T14:02:08.362Z,6.30
2022-12-01T14:04:37.278Z,6.40
2022-12-01T14:07:31.435Z,6.40
2022-12-01T14:10:26.045Z,6.40
2022-12-01T14:12:57.185Z,6.50
2022-12-01T14:15:34.575Z,6.60
2022-12-01T14:18:07.200Z,6.60
2022-12-01T14:20:44.669Z,6.60
2022-12-01T14:23:17.420Z,6.70
2022-12-01T14:26:13.636Z,6.60
2022-12-01T14:29:30.041Z,6.50
2022-12-01T14:32:23.037Z,6.50
2022-12-01T14:35:07.322Z,6.50
2022-12-01T14:37:47.339Z,6.50
2022-12-01T14:40:22.556Z,6.30
2022-12-01T14:43:13.491Z,6.30
2022-12-01T14:45:48.662Z,6.30
2022-12-01T14:48:21.283Z,6.30
2022-12-01T14:50:52.460Z,6.40
2022-12-01T14:53:25.959Z,6.40
2022-12-01T14:55:57.519Z,6.30
2022-12-01T14:58:29.690Z,6.20
2022-12-01T15:01:09.942Z,6.10
2022-12-01T15:03:42.479Z,6.00
2022-12-01T15:06:11.588Z,5.90
2022-12-01T15:08:43.558Z,5.90
2022-12-01T15:11:22.310Z,5.90
2022-12-01T15:13:55.364Z,5.90
2022-12-01T15:16:25.029Z,5.80
2022-12-01T15:18:53.426Z,5.80
2022-12-01T15:21:26.571Z,5.80
2022-12-01T15:23:56.721Z,5.90
2022-12-01T15:26:27.359Z,5.80
2022-12-01T15:29:16.858Z,5.80
2022-12-01T15:31:49.424Z,5.70
2022-12-01T15:34:20.434Z,5.60
2022-12-01T15:36:49.639Z,5.60
2022-12-01T15:39:20.054Z,5.50
2022-12-01T15:41:53.952Z,5.60
2022-12-01T15:44:29.142Z,5.60
2022-12-01T15:46:57.740Z,5.50
2022-12-01T15:49:29.640Z,5.50
2022-12-01T15:52:07.596Z,5.50
2022-12-01T15:54:37.104Z,5.40
2022-12-01T15:57:06.692Z,5.40
2022-12-01T15:59:40.096Z,5.30
2022-12-01T16:02:20.742Z,5.30
2022-12-01T16:04:49.813Z,5.30
2022-12-01T16:07:18.286Z,5.30
2022-12-01T16:09:58.302Z,5.10
2022-12-01T16:12:27.978Z,5.10
2022-12-01T16:15:08.323Z,5.30
2022-12-01T16:17:44.435Z,5.40
2022-12-01T16:20:23.862Z,5.30
2022-12-01T16:22:58.919Z,5.30
2022-12-01T16:25:34.665Z,5.30
2022-12-01T16:28:03.939Z,5.40
2022-12-01T16:30:40.337Z,5.30
2022-12-01T16:33:19.151Z,5.20
2022-12-01T16:35:47.645Z,5.10
2022-12-01T16:38:20.640Z,5.10
2022-12-01T16:40:49.795Z,5.10
2022-12-01T16:43:19.683Z,5.10
2022-12-01T16:45:53.028Z,5.10
2022-12-01T16:48:21.631Z,5.10
2022-12-01T16:50:50.694Z,5.30
2022-12-01T16:53:19.145Z,5.20
2022-12-01T16:55:50.786Z,5.20
2022-12-01T16:58:19.100Z,5.20
2022-12-01T17:00:52.771Z,5.10
2022-12-01T17:03:22.864Z,5.00
2022-12-01T17:05:52.174Z,5.00
2022-12-01T17:08:21.294Z,5.10
2022-12-01T17:10:51.479Z,5.20
2022-12-01T17:13:21.654Z,5.30
2022-12-01T17:15:53.855Z,5.20
2022-12-01T17:18:24.218Z,5.10
2022-12-01T17:20:59.922Z,5.10
2022-12-01T17:23:29.044Z,5.10
2022-12-01T17:25:57.497Z,5.20
2022-12-01T17:28:25.680Z,5.30
2022-12-01T17:30:55.316Z,5.20
2022-12-01T17:33:23.701Z,5.10
2022-12-01T17:35:51.976Z,5.20
2022-12-01T17:38:20.413Z,5.20
2022-12-01T17:41:01.556Z,5.30
2022-12-01T17:43:30.285Z,5.30
2022-12-01T17:45:59.909Z,5.30
2022-12-01T17:48:28.757Z,5.30
2022-12-01T17:50:57.032Z,5.30
2022-12-01T17:53:25.302Z,5.30
2022-12-01T17:55:53.554Z,5.20
2022-12-01T17:58:22.234Z,5.30
2022-12-01T18:00:51.370Z,5.30
2022-12-01T18:03:21.438Z,5.30
2022-12-01T18:05:56.557Z,5.30
2022-12-01T18:08:25.441Z,5.30
2022-12-01T18:10:53.933Z,5.30
2022-12-01T18:13:22.514Z,5.30
2022-12-01T18:15:50.959Z,5.20
2022-12-01T18:18:20.650Z,5.10
2022-12-01T18:20:48.992Z,4.90
2022-12-01T18:23:17.171Z,4.90
2022-12-01T18:25:45.394Z,5.00
2022-12-01T18:28:13.650Z,5.10
2022-12-01T18:30:41.936Z,5.20
2022-12-01T18:33:12.297Z,5.30
2022-12-01T18:35:45.812Z,5.30
2022-12-01T18:38:14.009Z,5.20
2022-12-01T18:40:42.255Z,5.20
2022-12-01T18:43:10.599Z,5.10
2022-12-01T18:45:40.849Z,5.10
2022-12-01T18:48:09.406Z,5.10
2022-12-01T18:50:38.036Z,5.10
2022-12-01T18:53:07.685Z,5.30
2022-12-01T18:55:37.450Z,5.20
2022-12-01T18:58:05.600Z,5.10
2022-12-01T19:00:33.862Z,5.10
2022-12-01T19:03:03.073Z,5.00
2022-12-01T19:05:31.870Z,5.00
2022-12-01T19:08:00.231Z,4.90
2022-12-01T19:10:29.938Z,5.00
2022-12-01T19:13:00.708Z,4.90
2022-12-01T19:15:30.092Z,4.90
2022-12-01T19:18:02.424Z,5.00
2022-12-01T19:20:30.846Z,5.00
2022-12-01T19:23:02.567Z,4.80
2022-12-01T19:25:37.086Z,4.80
2022-12-01T19:28:06.684Z,4.90
2022-12-01T19:30:34.986Z,5.00
2022-12-01T19:33:03.319Z,5.00
2022-12-01T19:35:34.155Z,4.90
2022-12-01T19:38:05.432Z,5.00
2022-12-01T19:40:35.285Z,5.00
2022-12-01T19:43:03.580Z,5.00
2022-12-01T19:45:37.811Z,5.00
2022-12-01T19:48:14.580Z,5.00
2022-12-01T19:50:45.695Z,5.00
2022-12-01T19:53:13.877Z,4.90
2022-12-01T19:55:43.484Z,4.90
2022-12-01T19:58:11.770Z,5.00
2022-12-01T20:00:39.958Z,5.00
2022-12-01T20:03:08.247Z,4.90
2022-12-01T20:05:36.396Z,4.90
2022-12-01T20:08:05.101Z,4.90
2022-12-01T20:10:33.353Z,4.90
2022-12-01T20:13:03.052Z,4.90
2022-12-01T20:15:33.826Z,4.90
2022-12-01T20:18:02.124Z,4.80
2022-12-01T20:20:30.389Z,4.90
2022-12-01T20:22:59.512Z,5.10
2022-12-01T20:25:28.032Z,5.00
2022-12-01T20:27:57.224Z,4.90
2022-12-01T20:30:27.995Z,4.80
2022-12-01T20:32:56.636Z,4.90
2022-12-01T20:35:25.234Z,4.90
2022-12-01T20:37:53.496Z,4.80
2022-12-01T20:40:21.810Z,4.80
2022-12-01T20:42:53.176Z,4.70
2022-12-01T20:45:21.934Z,4.80
2022-12-01T20:47:51.614Z,4.90
2022-12-01T20:50:21.386Z,4.90
2022-12-01T20:52:50.239Z,4.90
2022-12-01T20:55:19.750Z,5.00
2022-12-01T20:57:48.016Z,5.10
2022-12-01T21:00:17.485Z,5.10
2022-12-01T21:02:47.947Z,5.00
2022-12-01T21:05:18.562Z,5.10
2022-12-01T21:07:47.717Z,5.00
2022-12-01T21:10:19.920Z,5.00
2022-12-01T21:13:19.544Z,5.00
2022-12-01T21:15:56.280Z,5.00
2022-12-01T21:18:34.714Z,5.00
2022-12-01T21:21:08.057Z,5.00
2022-12-01T21:23:36.356Z,5.00
2022-12-01T21:26:10.013Z,5.00
2022-12-01T21:28:38.785Z,5.10
2022-12-01T21:31:14.067Z,5.10
2022-12-01T21:33:42.993Z,5.10
2022-12-01T21:36:18.252Z,5.20
2022-12-01T21:38:47.323Z,5.10
2022-12-01T21:41:21.745Z,4.90
2022-12-01T21:43:50.018Z,4.80
2022-12-01T21:46:19.277Z,4.70
2022-12-01T21:48:47.529Z,4.70
2022-12-01T21:51:22.965Z,4.60
2022-12-01T21:53:55.341Z,4.60
2022-12-01T21:56:26.634Z,4.60
2022-12-01T21:59:00.069Z,4.60
2022-12-01T22:01:34.165Z,4.40
2022-12-01T22:04:12.330Z,4.50
2022-12-01T22:06:48.613Z,4.60
2022-12-01T22:09:33.055Z,4.60
2022-12-01T22:12:19.191Z,4.70
2022-12-01T22:14:52.042Z,4.60
2022-12-01T22:17:23.941Z,4.60
2022-12-01T22:20:01.572Z,4.80
2022-12-01T22:22:36.642Z,4.70
2022-12-01T22:25:24.018Z,4.40
2022-12-01T22:28:00.753Z,4.50
2022-12-01T22:30:29.862Z,4.70
2022-12-01T22:33:03.674Z,4.80
2022-12-01T22:35:35.816Z,4.90
2022-12-01T22:38:25.752Z,4.90
2022-12-01T22:40:58.278Z,4.90
2022-12-01T22:43:55.069Z,4.90
2022-12-01T22:46:30.445Z,4.90
2022-12-01T22:49:00.271Z,4.90
2022-12-01T22:51:49.086Z,4.90
2022-12-01T22:54:28.990Z,4.80
2022-12-01T22:57:26.228Z,4.80
2022-12-01T22:59:55.312Z,4.90
2022-12-01T23:02:25.510Z,5.00
2022-12-01T23:04:57.724Z,5.00
2022-12-01T23:07:34.616Z,5.10
2022-12-01T23:10:13.367Z,5.10
2022-12-01T23:12:42.859Z,5.10
2022-12-01T23:15:23.819Z,5.10
2022-12-01T23:17:52.528Z,5.10
2022-12-01T23:20:31.160Z,5.10
2022-12-01T23:23:01.686Z,5.10
2022-12-01T23:25:32.176Z,5.00
2022-12-01T23:28:04.421Z,4.90
2022-12-01T23:30:33.165Z,4.90
2022-12-01T23:33:10.647Z,4.90
2022-12-01T23:35:42.348Z,4.90
2022-12-01T23:38:17.177Z,4.90
2022-12-01T23:40:47.237Z,4.90
2022-12-01T23:43:20.422Z,4.90
2022-12-01T23:45:50.988Z,4.80
2022-12-01T23:48:23.348Z,4.90
2022-12-01T23:50:54.482Z,4.90
2022-12-01T23:53:29.696Z,4.90
2022-12-01T23:56:06.784Z,5.00
2022-12-01T23:58:35.893Z,4.90
